createdAt,value
2019-03-28T00:00:16.560Z,7.90
2019-03-28T00:02:44.777Z,7.60
2019-03-28T00:05:13.364Z,7.60
2019-03-28T00:07:41.584Z,7.70
2019-03-28T00:10:10.101Z,7.70
2019-03-28T00:12:38.513Z,7.80
2019-03-28T00:15:06.980Z,7.70
2019-03-28T00:17:35.208Z,7.80
2019-03-28T00:20:05.045Z,7.80
2019-03-28T00:22:47.144Z,7.90
2019-03-28T00:25:19.510Z,8.00
2019-03-28T00:27:48.027Z,8.00
2019-03-28T00:30:17.921Z,7.90
2019-03-28T00:32:46.163Z,7.90
2019-03-28T00:35:14.372Z,7.80
2019-03-28T00:37:42.677Z,7.80
2019-03-28T00:40:11.148Z,7.90
2019-03-28T00:42:39.380Z,8.00
2019-03-28T00:45:07.606Z,8.00
2019-03-28T00:47:36.229Z,7.80
2019-03-28T00:50:08.190Z,7.90
2019-03-28T00:52:36.568Z,7.90
2019-03-28T00:55:06.129Z,7.70
2019-03-28T00:57:34.370Z,7.40
2019-03-28T01:00:02.583Z,7.60
2019-03-28T01:02:30.814Z,7.70
2019-03-28T01:04:59.052Z,7.60
2019-03-28T01:07:27.281Z,7.60
2019-03-28T01:09:55.524Z,7.70
2019-03-28T01:12:24.068Z,7.60
2019-03-28T01:14:52.291Z,7.70
2019-03-28T01:17:20.516Z,7.70
2019-03-28T01:19:48.732Z,7.60
2019-03-28T01:22:16.966Z,7.50
2019-03-28T01:24:45.176Z,7.50
2019-03-28T01:27:13.408Z,7.50
2019-03-28T01:29:41.630Z,7.50
2019-03-28T01:32:09.857Z,7.50
2019-03-28T01:34:38.076Z,7.60
2019-03-28T01:37:06.628Z,7.50
2019-03-28T01:39:35.291Z,7.30
2019-03-28T01:42:03.756Z,7.10
2019-03-28T01:44:31.965Z,6.80
2019-03-28T01:47:00.197Z,6.90
2019-03-28T01:49:28.420Z,7.00
2019-03-28T01:51:56.654Z,6.90
2019-03-28T01:54:24.876Z,6.90
2019-03-28T01:56:53.100Z,6.60
2019-03-28T01:59:21.414Z,6.80
2019-03-28T02:01:49.717Z,6.90
2019-03-28T02:04:17.940Z,6.30
2019-03-28T02:06:46.160Z,6.40
2019-03-28T02:09:14.392Z,6.30
2019-03-28T02:11:42.612Z,6.50
2019-03-28T02:14:10.842Z,6.60
2019-03-28T02:16:39.056Z,6.60
2019-03-28T02:19:07.288Z,6.50
2019-03-28T02:21:36.082Z,6.50
2019-03-28T02:24:04.309Z,6.40
2019-03-28T02:26:32.524Z,6.10
2019-03-28T02:29:00.752Z,6.20
2019-03-28T02:31:28.969Z,6.40
2019-03-28T02:33:57.202Z,6.30
2019-03-28T02:36:25.422Z,6.10
2019-03-28T02:38:53.649Z,6.10
2019-03-28T02:41:21.868Z,6.20
2019-03-28T02:43:50.112Z,6.40
2019-03-28T02:46:18.321Z,6.50
2019-03-28T02:48:46.572Z,6.40
2019-03-28T02:51:14.953Z,6.30
2019-03-28T02:53:43.192Z,6.40
2019-03-28T02:56:11.414Z,6.20
2019-03-28T02:58:39.645Z,6.10
2019-03-28T03:01:07.865Z,6.10
2019-03-28T03:03:36.405Z,6.20
2019-03-28T03:06:04.622Z,6.10
2019-03-28T03:08:33.587Z,6.00
2019-03-28T03:11:01.945Z,6.00
2019-03-28T03:13:49.889Z,5.70
2019-03-28T03:16:18.108Z,5.70
2019-03-28T03:18:46.345Z,5.80
2019-03-28T03:21:14.571Z,5.80
2019-03-28T03:23:42.826Z,5.40
2019-03-28T03:26:11.042Z,5.70
2019-03-28T03:28:39.276Z,5.90
2019-03-28T03:31:07.496Z,5.90
2019-03-28T03:33:37.360Z,5.90
2019-03-28T03:36:06.108Z,5.80
2019-03-28T03:38:34.340Z,5.50
2019-03-28T03:41:02.561Z,5.60
2019-03-28T03:43:30.790Z,5.60
2019-03-28T03:45:59.327Z,5.60
2019-03-28T03:48:27.569Z,5.40
2019-03-28T03:50:55.771Z,5.30
2019-03-28T03:53:23.984Z,5.50
2019-03-28T03:55:52.217Z,5.60
2019-03-28T03:58:20.433Z,5.50
2019-03-28T04:00:48.675Z,5.10
2019-03-28T04:03:16.899Z,5.40
2019-03-28T04:05:45.132Z,5.30
2019-03-28T04:08:13.354Z,5.30
2019-03-28T04:10:41.592Z,5.20
2019-03-28T04:13:10.693Z,5.00
2019-03-28T04:15:39.091Z,5.20
2019-03-28T04:18:07.308Z,5.40
2019-03-28T04:20:35.544Z,5.50
2019-03-28T04:23:04.045Z,5.50
2019-03-28T04:25:32.471Z,5.50
2019-03-28T04:28:00.694Z,5.40
2019-03-28T04:30:28.930Z,5.40
2019-03-28T04:32:57.144Z,5.10
2019-03-28T04:35:25.387Z,5.00
2019-03-28T04:37:53.649Z,5.00
2019-03-28T04:40:21.912Z,5.00
2019-03-28T04:42:50.128Z,5.20
2019-03-28T04:45:18.360Z,5.30
2019-03-28T04:47:46.582Z,5.20
2019-03-28T04:50:14.807Z,5.20
2019-03-28T04:52:43.032Z,5.20
2019-03-28T04:55:11.260Z,5.10
2019-03-28T04:57:41.010Z,5.00
2019-03-28T05:00:09.764Z,5.00
2019-03-28T05:02:38.056Z,5.00
2019-03-28T05:05:06.850Z,5.10
2019-03-28T05:07:35.068Z,5.00
2019-03-28T05:10:04.262Z,4.60
2019-03-28T05:12:32.479Z,4.60
2019-03-28T05:15:00.708Z,4.80
2019-03-28T05:17:29.240Z,5.00
2019-03-28T05:19:57.725Z,5.00
2019-03-28T05:22:25.944Z,4.50
2019-03-28T05:24:54.177Z,4.40
2019-03-28T05:27:22.392Z,4.50
2019-03-28T05:29:50.620Z,4.60
2019-03-28T05:32:18.847Z,4.70
2019-03-28T05:34:47.381Z,4.80
2019-03-28T05:37:15.616Z,4.80
2019-03-28T05:40:04.249Z,5.00
2019-03-28T05:42:32.465Z,4.90
2019-03-28T05:45:00.692Z,4.90
2019-03-28T05:47:29.448Z,5.00
2019-03-28T05:49:57.820Z,4.70
2019-03-28T05:52:26.036Z,4.80
2019-03-28T05:54:54.254Z,5.00
2019-03-28T05:57:22.487Z,5.10
2019-03-28T05:59:50.696Z,5.10
2019-03-28T06:02:18.936Z,5.00
2019-03-28T06:04:47.207Z,5.00
2019-03-28T06:07:15.429Z,5.00
2019-03-28T06:09:44.515Z,5.00
2019-03-28T06:12:12.856Z,5.10
2019-03-28T06:14:41.084Z,5.10
2019-03-28T06:17:09.305Z,5.10
2019-03-28T06:19:38.347Z,4.90
2019-03-28T06:22:26.247Z,4.90
2019-03-28T06:24:54.469Z,4.90
2019-03-28T06:27:22.713Z,5.10
2019-03-28T06:29:50.927Z,5.20
2019-03-28T06:32:19.172Z,5.30
2019-03-28T06:34:47.389Z,5.30
2019-03-28T06:37:15.632Z,5.50
2019-03-28T06:39:43.852Z,5.50
2019-03-28T06:42:12.087Z,5.60
2019-03-28T06:44:40.303Z,5.60
2019-03-28T06:47:08.540Z,5.80
2019-03-28T06:49:36.756Z,5.80
2019-03-28T06:52:04.984Z,5.70
2019-03-28T06:54:33.206Z,5.60
2019-03-28T06:57:01.446Z,5.60
2019-03-28T06:59:37.197Z,5.70
2019-03-28T07:02:21.789Z,5.90
2019-03-28T07:04:49.078Z,5.90
2019-03-28T07:07:18.621Z,5.70
2019-03-28T07:09:47.052Z,5.70
2019-03-28T07:12:15.283Z,6.00
2019-03-28T07:14:43.745Z,6.20
2019-03-28T07:17:11.972Z,6.20
2019-03-28T07:19:40.196Z,6.60
2019-03-28T07:22:08.705Z,6.70
2019-03-28T07:24:37.389Z,6.60
2019-03-28T07:27:05.880Z,6.70
2019-03-28T07:29:34.093Z,6.80
2019-03-28T07:32:02.352Z,6.60
2019-03-28T07:34:30.582Z,6.90
2019-03-28T07:36:59.078Z,7.00
2019-03-28T07:39:27.314Z,7.20
2019-03-28T07:41:55.545Z,7.50
2019-03-28T07:44:23.766Z,7.30
2019-03-28T07:46:52.017Z,7.20
2019-03-28T07:49:20.258Z,7.40
2019-03-28T07:51:48.803Z,7.50
2019-03-28T07:54:17.020Z,7.90
2019-03-28T07:56:45.260Z,8.10
2019-03-28T07:59:13.488Z,8.30
2019-03-28T08:01:41.735Z,8.30
2019-03-28T08:04:12.267Z,8.60
2019-03-28T08:06:49.592Z,8.90
2019-03-28T08:09:10.676Z,9.20
2019-03-28T08:11:39.057Z,9.50
2019-03-28T08:14:07.402Z,9.30
2019-03-28T08:16:35.628Z,9.20
2019-03-28T08:19:03.852Z,9.60
2019-03-28T08:21:32.354Z,9.80
2019-03-28T08:24:00.587Z,10.10
2019-03-28T08:26:30.451Z,10.10
2019-03-28T08:28:58.826Z,9.90
2019-03-28T08:31:27.317Z,10.00
2019-03-28T08:33:55.557Z,10.40
2019-03-28T08:36:23.844Z,10.60
2019-03-28T08:38:52.447Z,10.70
2019-03-28T08:41:20.668Z,10.50
2019-03-28T08:43:48.906Z,10.80
2019-03-28T08:46:17.397Z,10.90
2019-03-28T08:48:45.683Z,11.00
2019-03-28T08:51:13.912Z,11.00
2019-03-28T08:53:42.143Z,11.40
2019-03-28T08:56:10.393Z,12.10
2019-03-28T08:58:38.717Z,12.40
2019-03-28T09:01:07.802Z,12.50
2019-03-28T09:03:36.062Z,12.70
2019-03-28T09:06:04.281Z,13.30
2019-03-28T09:08:32.516Z,13.70
2019-03-28T09:11:00.741Z,14.10
2019-03-28T09:13:28.963Z,14.50
2019-03-28T09:15:57.417Z,14.70
2019-03-28T09:18:31.828Z,14.90
2019-03-28T09:21:00.060Z,14.90
2019-03-28T09:23:28.469Z,14.80
2019-03-28T09:25:57.077Z,15.70
2019-03-28T09:28:25.404Z,16.60
2019-03-28T09:30:53.640Z,17.20
2019-03-28T09:33:21.880Z,17.60
2019-03-28T09:35:50.215Z,18.10
2019-03-28T09:38:18.616Z,18.40
2019-03-28T09:40:46.841Z,18.60
2019-03-28T09:43:15.072Z,18.60
2019-03-28T09:45:43.296Z,18.70
2019-03-28T09:48:12.105Z,18.80
2019-03-28T09:50:40.760Z,19.00
2019-03-28T09:53:08.998Z,18.90
2019-03-28T09:55:37.219Z,19.20
2019-03-28T09:58:05.496Z,18.90
2019-03-28T10:00:34.730Z,19.10
2019-03-28T10:03:03.177Z,19.10
2019-03-28T10:05:31.414Z,19.10
2019-03-28T10:07:59.633Z,19.20
2019-03-28T10:10:27.873Z,19.60
2019-03-28T10:12:56.092Z,19.70
2019-03-28T10:15:24.341Z,18.90
2019-03-28T10:17:52.565Z,19.10
2019-03-28T10:20:20.812Z,19.50
2019-03-28T10:22:49.035Z,19.90
2019-03-28T10:25:17.264Z,20.00
2019-03-28T10:27:45.497Z,19.60
2019-03-28T10:30:13.751Z,19.80
2019-03-28T10:32:41.988Z,20.00
2019-03-28T10:35:13.494Z,19.80
2019-03-28T10:37:41.805Z,20.00
2019-03-28T10:40:10.091Z,20.10
2019-03-28T10:42:38.359Z,19.60
2019-03-28T10:45:06.795Z,19.20
2019-03-28T10:47:35.055Z,19.60
2019-03-28T10:50:04.437Z,19.80
2019-03-28T10:52:33.134Z,20.00
2019-03-28T10:55:01.409Z,19.90
2019-03-28T10:57:30.518Z,19.90
2019-03-28T10:59:59.667Z,19.90
2019-03-28T11:02:28.967Z,19.90
2019-03-28T11:04:57.436Z,20.00
2019-03-28T11:07:25.981Z,19.80
2019-03-28T11:09:54.252Z,19.90
2019-03-28T11:12:22.508Z,19.90
2019-03-28T11:14:50.802Z,20.10
2019-03-28T11:17:19.065Z,19.70
2019-03-28T11:19:47.351Z,19.70
2019-03-28T11:22:16.049Z,19.90
2019-03-28T11:24:46.312Z,19.80
2019-03-28T11:27:14.300Z,19.70
2019-03-28T11:29:42.580Z,19.80
2019-03-28T11:32:11.185Z,20.00
2019-03-28T11:34:39.536Z,20.20
2019-03-28T11:37:11.229Z,20.10
2019-03-28T11:39:37.792Z,20.10
2019-03-28T11:42:06.601Z,20.10
2019-03-28T11:44:34.878Z,20.00
2019-03-28T11:47:03.509Z,19.60
2019-03-28T11:49:31.783Z,19.30
2019-03-28T11:52:00.045Z,19.00
2019-03-28T11:54:28.324Z,18.70
2019-03-28T11:56:56.640Z,19.10
2019-03-28T11:59:24.953Z,19.20
2019-03-28T12:01:59.911Z,19.40
2019-03-28T12:04:23.217Z,19.30
2019-03-28T12:06:51.485Z,19.40
2019-03-28T12:09:19.755Z,19.70
2019-03-28T12:11:48.020Z,19.60
2019-03-28T12:14:16.297Z,19.50
2019-03-28T12:16:44.568Z,19.80
2019-03-28T12:19:12.896Z,19.90
2019-03-28T12:21:41.532Z,19.70
2019-03-28T12:24:10.161Z,19.40
2019-03-28T12:26:38.415Z,18.90
2019-03-28T12:29:06.685Z,18.70
2019-03-28T12:31:34.960Z,18.40
2019-03-28T12:34:03.401Z,18.20
2019-03-28T12:36:31.669Z,18.00
2019-03-28T12:38:59.928Z,18.00
2019-03-28T12:41:28.200Z,17.80
2019-03-28T12:43:56.461Z,17.90
2019-03-28T12:46:25.780Z,17.80
2019-03-28T12:48:54.612Z,17.70
2019-03-28T12:51:23.199Z,17.70
2019-03-28T12:53:51.632Z,17.40
2019-03-28T12:56:19.900Z,17.50
2019-03-28T12:58:48.635Z,17.20
2019-03-28T13:01:17.229Z,17.10
2019-03-28T13:03:46.486Z,17.00
2019-03-28T13:06:14.999Z,16.90
2019-03-28T13:08:43.811Z,16.90
2019-03-28T13:11:12.264Z,17.00
2019-03-28T13:13:40.520Z,17.00
2019-03-28T13:16:09.240Z,17.00
2019-03-28T13:18:37.543Z,17.00
2019-03-28T13:21:13.506Z,17.10
2019-03-28T13:23:35.791Z,17.00
2019-03-28T13:26:04.069Z,17.00
2019-03-28T13:28:32.336Z,17.10
2019-03-28T13:31:00.611Z,17.30
2019-03-28T13:33:28.881Z,17.60
2019-03-28T13:35:57.265Z,17.60
2019-03-28T13:38:25.528Z,17.60
2019-03-28T13:40:53.798Z,17.30
2019-03-28T13:43:22.056Z,17.20
2019-03-28T13:45:50.328Z,17.20
2019-03-28T13:48:18.597Z,17.20
2019-03-28T13:50:46.943Z,17.10
2019-03-28T13:53:15.216Z,17.20
2019-03-28T13:55:44.540Z,17.30
2019-03-28T13:58:13.807Z,17.60
2019-03-28T14:00:42.363Z,17.90
2019-03-28T14:03:10.626Z,17.80
2019-03-28T14:05:38.905Z,17.50
2019-03-28T14:08:07.169Z,17.30
2019-03-28T14:10:35.727Z,17.10
2019-03-28T14:13:03.984Z,17.10
2019-03-28T14:15:32.278Z,17.10
2019-03-28T14:18:00.560Z,17.00
2019-03-28T14:20:48.268Z,16.90
2019-03-28T14:23:16.535Z,16.90
2019-03-28T14:25:44.811Z,16.80
2019-03-28T14:28:13.098Z,16.70
2019-03-28T14:30:41.434Z,16.70
2019-03-28T14:33:11.447Z,16.80
2019-03-28T14:35:39.744Z,16.70
2019-03-28T14:38:08.143Z,16.70
2019-03-28T14:40:36.495Z,16.50
2019-03-28T14:43:04.752Z,16.50
2019-03-28T14:45:33.036Z,16.40
2019-03-28T14:48:01.292Z,16.40
2019-03-28T14:50:37.159Z,16.40
2019-03-28T14:53:05.756Z,16.30
2019-03-28T14:55:34.295Z,16.30
2019-03-28T14:58:03.497Z,16.40
2019-03-28T15:00:49.656Z,16.30
2019-03-28T15:03:26.389Z,16.20
2019-03-28T15:05:48.136Z,16.30
2019-03-28T15:08:16.407Z,16.40
2019-03-28T15:10:44.753Z,16.50
2019-03-28T15:13:13.080Z,16.50
2019-03-28T15:15:41.354Z,16.50
2019-03-28T15:18:09.619Z,16.50
2019-03-28T15:20:37.904Z,16.40
2019-03-28T15:23:06.433Z,16.40
2019-03-28T15:25:34.711Z,16.40
2019-03-28T15:28:02.980Z,16.40
2019-03-28T15:30:31.265Z,16.30
2019-03-28T15:32:59.575Z,16.30
2019-03-28T15:35:27.843Z,16.30
2019-03-28T15:37:56.141Z,16.20
2019-03-28T15:40:24.668Z,16.20
2019-03-28T15:42:52.953Z,16.20
2019-03-28T15:45:21.576Z,16.10
2019-03-28T15:47:52.049Z,16.00
2019-03-28T15:50:19.978Z,15.90
2019-03-28T15:52:48.370Z,15.90
2019-03-28T15:55:16.644Z,16.00
2019-03-28T15:57:44.908Z,16.00
2019-03-28T16:00:13.748Z,16.10
2019-03-28T16:02:42.031Z,16.20
2019-03-28T16:05:10.296Z,16.20
2019-03-28T16:07:38.608Z,16.20
2019-03-28T16:10:07.424Z,16.30
2019-03-28T16:12:35.684Z,16.30
2019-03-28T16:15:07.963Z,16.20
2019-03-28T16:17:36.246Z,16.30
2019-03-28T16:20:05.957Z,16.20
2019-03-28T16:22:34.241Z,16.10
2019-03-28T16:25:02.516Z,16.00
2019-03-28T16:27:30.768Z,15.90
2019-03-28T16:29:59.378Z,15.80
2019-03-28T16:32:28.569Z,15.80
2019-03-28T16:34:57.200Z,15.70
2019-03-28T16:37:25.467Z,15.60
2019-03-28T16:39:53.728Z,15.50
2019-03-28T16:42:21.992Z,15.50
2019-03-28T16:44:50.264Z,15.50
2019-03-28T16:47:19.802Z,15.50
2019-03-28T16:49:48.104Z,15.40
2019-03-28T16:52:16.356Z,15.30
2019-03-28T16:54:44.627Z,16.00
2019-03-28T16:57:12.900Z,16.40
2019-03-28T16:59:41.248Z,16.80
2019-03-28T17:02:09.520Z,16.70
2019-03-28T17:04:37.798Z,16.80
2019-03-28T17:07:07.564Z,16.80
2019-03-28T17:09:37.596Z,16.30
2019-03-28T17:12:06.071Z,16.10
2019-03-28T17:14:34.356Z,15.80
2019-03-28T17:17:02.632Z,15.70
2019-03-28T17:19:30.896Z,15.70
2019-03-28T17:21:59.177Z,15.60
2019-03-28T17:24:28.106Z,15.50
2019-03-28T17:26:56.944Z,15.20
2019-03-28T17:29:25.243Z,15.20
2019-03-28T17:31:53.515Z,15.00
2019-03-28T17:34:34.023Z,15.00
2019-03-28T17:36:51.795Z,15.00
2019-03-28T17:39:20.405Z,14.80
2019-03-28T17:41:48.715Z,14.90
2019-03-28T17:44:16.983Z,14.70
2019-03-28T17:46:45.619Z,14.80
2019-03-28T17:49:13.884Z,14.70
2019-03-28T17:51:42.200Z,14.80
2019-03-28T17:54:11.813Z,14.70
2019-03-28T17:56:40.394Z,14.70
2019-03-28T17:59:08.657Z,14.70
2019-03-28T18:01:36.934Z,14.70
2019-03-28T18:04:05.864Z,14.50
2019-03-28T18:06:35.011Z,14.50
2019-03-28T18:09:05.108Z,14.50
2019-03-28T18:11:33.636Z,14.60
2019-03-28T18:14:01.897Z,14.50
2019-03-28T18:16:30.248Z,14.40
2019-03-28T18:18:58.540Z,14.40
2019-03-28T18:21:26.923Z,14.40
2019-03-28T18:23:55.310Z,14.30
2019-03-28T18:26:23.588Z,14.30
2019-03-28T18:28:51.843Z,14.30
2019-03-28T18:31:20.168Z,14.20
2019-03-28T18:33:48.423Z,14.20
2019-03-28T18:36:16.734Z,14.20
2019-03-28T18:38:45.105Z,14.00
2019-03-28T18:41:13.381Z,14.00
2019-03-28T18:43:41.640Z,13.80
2019-03-28T18:46:09.940Z,14.00
2019-03-28T18:48:57.709Z,13.80
2019-03-28T18:51:25.992Z,13.80
2019-03-28T18:53:54.246Z,13.80
2019-03-28T18:56:22.540Z,13.70
2019-03-28T18:58:50.797Z,13.70
2019-03-28T19:01:19.072Z,13.60
2019-03-28T19:03:47.780Z,13.60
2019-03-28T19:06:16.823Z,13.60
2019-03-28T19:08:45.313Z,13.60
2019-03-28T19:11:13.841Z,13.60
2019-03-28T19:13:42.111Z,13.60
2019-03-28T19:16:10.376Z,13.40
2019-03-28T19:18:38.720Z,13.50
2019-03-28T19:21:07.010Z,13.50
2019-03-28T19:23:35.433Z,13.50
2019-03-28T19:26:03.704Z,13.50
2019-03-28T19:28:32.056Z,13.50
2019-03-28T19:31:00.674Z,13.40
2019-03-28T19:33:29.112Z,13.50
2019-03-28T19:36:01.129Z,13.40
2019-03-28T19:38:28.466Z,13.40
2019-03-28T19:40:57.088Z,13.50
2019-03-28T19:43:25.391Z,13.60
2019-03-28T19:45:53.648Z,13.70
2019-03-28T19:48:22.033Z,13.70
2019-03-28T19:50:50.366Z,13.60
2019-03-28T19:53:18.728Z,13.60
2019-03-28T19:55:46.988Z,13.60
2019-03-28T19:58:15.600Z,13.40
2019-03-28T20:00:43.981Z,13.50
2019-03-28T20:03:12.614Z,13.60
2019-03-28T20:05:47.339Z,13.60
2019-03-28T20:08:15.920Z,13.50
2019-03-28T20:10:41.400Z,13.50
2019-03-28T20:13:09.750Z,13.50
2019-03-28T20:15:38.448Z,13.50
2019-03-28T20:18:07.158Z,13.40
2019-03-28T20:20:35.480Z,13.50
2019-03-28T20:23:03.796Z,13.60
2019-03-28T20:25:32.664Z,13.60
2019-03-28T20:28:01.104Z,13.60
2019-03-28T20:30:29.479Z,13.60
2019-03-28T20:32:57.821Z,13.30
2019-03-28T20:35:26.079Z,13.40
2019-03-28T20:37:54.388Z,13.40
2019-03-28T20:40:22.783Z,13.40
2019-03-28T20:42:51.075Z,13.40
2019-03-28T20:45:19.450Z,13.50
2019-03-28T20:47:47.719Z,13.50
2019-03-28T20:50:15.981Z,13.40
2019-03-28T20:52:44.841Z,13.40
2019-03-28T20:55:13.423Z,13.50
2019-03-28T20:57:41.772Z,13.50
2019-03-28T21:00:11.308Z,13.50
2019-03-28T21:02:39.576Z,13.50
2019-03-28T21:05:08.102Z,13.30
2019-03-28T21:07:36.522Z,13.30
2019-03-28T21:10:06.247Z,13.30
2019-03-28T21:12:34.518Z,13.30
2019-03-28T21:15:02.796Z,13.30
2019-03-28T21:17:32.217Z,13.20
2019-03-28T21:20:01.019Z,13.30
2019-03-28T21:22:29.395Z,13.20
2019-03-28T21:24:57.604Z,13.30
2019-03-28T21:27:25.883Z,13.30
2019-03-28T21:29:54.400Z,13.20
2019-03-28T21:32:22.628Z,13.20
2019-03-28T21:34:50.908Z,13.20
2019-03-28T21:37:19.421Z,13.20
2019-03-28T21:39:47.652Z,13.20
2019-03-28T21:42:15.909Z,13.20
2019-03-28T21:44:44.461Z,13.20
2019-03-28T21:47:12.935Z,13.20
2019-03-28T21:49:41.160Z,13.20
2019-03-28T21:52:09.429Z,13.00
2019-03-28T21:54:37.636Z,13.10
2019-03-28T21:57:05.869Z,13.00
2019-03-28T21:59:34.424Z,13.00
2019-03-28T22:02:02.657Z,13.10
2019-03-28T22:04:30.905Z,13.10
2019-03-28T22:06:59.180Z,13.10
2019-03-28T22:09:27.399Z,13.10
2019-03-28T22:11:55.632Z,13.10
2019-03-28T22:14:23.897Z,13.00
2019-03-28T22:16:52.124Z,12.90
2019-03-28T22:19:20.348Z,13.00
2019-03-28T22:21:48.569Z,12.90
2019-03-28T22:24:16.824Z,12.80
2019-03-28T22:26:46.160Z,12.90
2019-03-28T22:29:14.540Z,12.80
2019-03-28T22:31:42.765Z,12.80
2019-03-28T22:34:11.064Z,12.80
2019-03-28T22:36:39.288Z,12.80
2019-03-28T22:39:07.787Z,12.80
2019-03-28T22:41:36.007Z,12.70
2019-03-28T22:44:04.245Z,12.70
2019-03-28T22:46:32.486Z,12.70
2019-03-28T22:49:00.704Z,12.70
2019-03-28T22:51:31.544Z,12.50
2019-03-28T22:53:58.899Z,12.40
2019-03-28T22:56:27.436Z,12.40
2019-03-28T22:58:55.676Z,12.50
2019-03-28T23:01:23.897Z,12.40
2019-03-28T23:03:52.196Z,12.40
2019-03-28T23:06:20.421Z,12.40
2019-03-28T23:08:48.656Z,12.40
2019-03-28T23:11:16.886Z,12.40
2019-03-28T23:13:45.112Z,12.20
2019-03-28T23:16:14.551Z,12.20
2019-03-28T23:18:42.796Z,12.20
2019-03-28T23:21:11.329Z,12.20
2019-03-28T23:23:39.564Z,12.20
2019-03-28T23:26:27.252Z,12.20
2019-03-28T23:28:55.500Z,12.20
2019-03-28T23:31:23.718Z,12.20
2019-03-28T23:33:51.948Z,12.10
2019-03-28T23:36:20.177Z,12.00
2019-03-28T23:38:48.424Z,12.00
2019-03-28T23:41:16.644Z,12.10
2019-03-28T23:43:44.900Z,12.00
2019-03-28T23:46:13.120Z,12.10
2019-03-28T23:48:41.349Z,12.10
2019-03-28T23:51:09.574Z,12.10
2019-03-28T23:53:37.800Z,12.10
2019-03-28T23:56:06.068Z,12.10
2019-03-28T23:58:34.332Z,12.10
